sensor_id;sensor_type;location;lat;lon;timestamp;pressure;altitude;pressure_sealevel;temperature;humidity
75629;BME280;64213;46.452;16.994;2023-04-24T00:00:01;99018.66;;;15.68;54.76
75629;BME280;64213;46.452;16.994;2023-04-24T00:03:03;98990.22;;;15.58;54.03
75629;BME280;64213;46.452;16.994;2023-04-24T00:06:05;99009.50;;;15.70;54.08
75629;BME280;64213;46.452;16.994;2023-04-24T00:09:10;98985.94;;;15.66;53.68
75629;BME280;64213;46.452;16.994;2023-04-24T00:12:12;98988.50;;;15.67;53.21
75629;BME280;64213;46.452;16.994;2023-04-24T00:15:14;98984.00;;;15.68;52.80
75629;BME280;64213;46.452;16.994;2023-04-24T00:18:16;98977.34;;;15.72;52.38
75629;BME280;64213;46.452;16.994;2023-04-24T00:21:18;98976.88;;;15.76;52.00
75629;BME280;64213;46.452;16.994;2023-04-24T00:24:20;98962.03;;;15.74;51.50
75629;BME280;64213;46.452;16.994;2023-04-24T00:27:23;98973.34;;;15.76;51.65
75629;BME280;64213;46.452;16.994;2023-04-24T00:30:25;98970.69;;;15.76;51.49
75629;BME280;64213;46.452;16.994;2023-04-24T00:33:27;98969.84;;;15.75;51.12
75629;BME280;64213;46.452;16.994;2023-04-24T00:36:29;98964.69;;;15.74;51.08
75629;BME280;64213;46.452;16.994;2023-04-24T00:39:33;98967.69;;;15.71;51.19
75629;BME280;64213;46.452;16.994;2023-04-24T00:42:35;98960.50;;;15.71;51.00
75629;BME280;64213;46.452;16.994;2023-04-24T00:45:37;98954.66;;;15.68;51.05
75629;BME280;64213;46.452;16.994;2023-04-24T00:48:40;98955.66;;;15.67;50.90
75629;BME280;64213;46.452;16.994;2023-04-24T00:51:42;98951.28;;;15.66;50.89
75629;BME280;64213;46.452;16.994;2023-04-24T00:54:52;98952.28;;;15.65;50.73
75629;BME280;64213;46.452;16.994;2023-04-24T00:57:54;98946.44;;;15.61;50.82
75629;BME280;64213;46.452;16.994;2023-04-24T01:00:57;98940.91;;;15.54;51.05
75629;BME280;64213;46.452;16.994;2023-04-24T01:04:00;98936.19;;;15.48;51.23
75629;BME280;64213;46.452;16.994;2023-04-24T01:07:04;98933.47;;;15.40;51.37
75629;BME280;64213;46.452;16.994;2023-04-24T01:10:13;98930.06;;;15.30;51.68
75629;BME280;64213;46.452;16.994;2023-04-24T01:13:15;98926.66;;;15.20;51.91
75629;BME280;64213;46.452;16.994;2023-04-24T01:16:18;98929.25;;;15.11;52.02
75629;BME280;64213;46.452;16.994;2023-04-24T01:19:23;98921.53;;;15.00;51.99
75629;BME280;64213;46.452;16.994;2023-04-24T01:22:25;98930.47;;;14.99;51.96
75629;BME280;64213;46.452;16.994;2023-04-24T01:25:27;98918.25;;;14.88;52.09
75629;BME280;64213;46.452;16.994;2023-04-24T01:28:30;98930.88;;;14.86;52.17
75629;BME280;64213;46.452;16.994;2023-04-24T01:31:32;98921.00;;;14.79;52.67
75629;BME280;64213;46.452;16.994;2023-04-24T01:34:35;98924.13;;;14.74;52.74
75629;BME280;64213;46.452;16.994;2023-04-24T01:37:37;98918.41;;;14.69;52.83
75629;BME280;64213;46.452;16.994;2023-04-24T01:40:39;98925.16;;;14.63;53.12
75629;BME280;64213;46.452;16.994;2023-04-24T01:43:41;98916.53;;;14.61;53.58
75629;BME280;64213;46.452;16.994;2023-04-24T01:46:43;98917.78;;;14.57;53.58
75629;BME280;64213;46.452;16.994;2023-04-24T01:49:45;98920.09;;;14.52;53.93
75629;BME280;64213;46.452;16.994;2023-04-24T01:52:47;98923.31;;;14.46;54.62
75629;BME280;64213;46.452;16.994;2023-04-24T01:55:50;98921.03;;;14.33;55.19
75629;BME280;64213;46.452;16.994;2023-04-24T01:58:52;98919.09;;;14.26;55.66
75629;BME280;64213;46.452;16.994;2023-04-24T02:01:55;98911.63;;;14.11;56.23
75629;BME280;64213;46.452;16.994;2023-04-24T02:04:58;98913.44;;;14.11;56.72
75629;BME280;64213;46.452;16.994;2023-04-24T02:08:00;98907.03;;;14.04;57.43
75629;BME280;64213;46.452;16.994;2023-04-24T02:11:02;98904.28;;;13.95;58.18
75629;BME280;64213;46.452;16.994;2023-04-24T02:14:04;98900.41;;;13.90;57.94
75629;BME280;64213;46.452;16.994;2023-04-24T02:17:06;98894.84;;;13.83;58.71
75629;BME280;64213;46.452;16.994;2023-04-24T02:20:08;98888.97;;;13.80;58.86
75629;BME280;64213;46.452;16.994;2023-04-24T02:23:11;98891.22;;;13.75;58.89
75629;BME280;64213;46.452;16.994;2023-04-24T02:26:13;98888.19;;;13.69;59.33
75629;BME280;64213;46.452;16.994;2023-04-24T02:29:15;98885.28;;;13.63;59.43
75629;BME280;64213;46.452;16.994;2023-04-24T02:32:17;98888.53;;;13.57;59.91
75629;BME280;64213;46.452;16.994;2023-04-24T02:35:19;98886.03;;;13.45;60.85
75629;BME280;64213;46.452;16.994;2023-04-24T02:38:22;98888.03;;;13.34;61.19
75629;BME280;64213;46.452;16.994;2023-04-24T02:41:24;98886.09;;;13.26;61.33
75629;BME280;64213;46.452;16.994;2023-04-24T02:44:26;98883.97;;;13.20;61.98
75629;BME280;64213;46.452;16.994;2023-04-24T02:47:28;98885.97;;;13.18;61.32
75629;BME280;64213;46.452;16.994;2023-04-24T02:50:30;98883.00;;;13.11;62.37
75629;BME280;64213;46.452;16.994;2023-04-24T02:53:32;98879.81;;;12.98;62.86
75629;BME280;64213;46.452;16.994;2023-04-24T02:56:34;98874.66;;;12.96;62.54
75629;BME280;64213;46.452;16.994;2023-04-24T02:59:37;98873.13;;;12.94;63.16
75629;BME280;64213;46.452;16.994;2023-04-24T03:02:39;98875.22;;;12.90;62.85
75629;BME280;64213;46.452;16.994;2023-04-24T03:05:41;98878.88;;;12.89;63.16
75629;BME280;64213;46.452;16.994;2023-04-24T03:08:43;98878.00;;;12.89;63.58
75629;BME280;64213;46.452;16.994;2023-04-24T03:11:45;98873.84;;;12.86;63.64
75629;BME280;64213;46.452;16.994;2023-04-24T03:14:47;98873.00;;;12.86;63.88
75629;BME280;64213;46.452;16.994;2023-04-24T03:17:49;98882.78;;;12.85;64.15
75629;BME280;64213;46.452;16.994;2023-04-24T03:20:51;98882.09;;;12.83;64.02
75629;BME280;64213;46.452;16.994;2023-04-24T03:23:53;98876.78;;;12.83;64.32
75629;BME280;64213;46.452;16.994;2023-04-24T03:26:55;98877.62;;;12.84;64.21
75629;BME280;64213;46.452;16.994;2023-04-24T03:29:58;98887.53;;;12.82;64.56
75629;BME280;64213;46.452;16.994;2023-04-24T03:33:00;98884.75;;;12.83;64.14
75629;BME280;64213;46.452;16.994;2023-04-24T03:36:02;98887.25;;;12.85;64.46
75629;BME280;64213;46.452;16.994;2023-04-24T03:39:05;98887.97;;;12.87;64.35
75629;BME280;64213;46.452;16.994;2023-04-24T03:42:07;98886.97;;;12.88;64.50
75629;BME280;64213;46.452;16.994;2023-04-24T03:45:10;98895.63;;;12.90;64.83
75629;BME280;64213;46.452;16.994;2023-04-24T03:48:12;98893.94;;;12.89;64.29
75629;BME280;64213;46.452;16.994;2023-04-24T03:51:14;98886.56;;;12.92;64.62
75629;BME280;64213;46.452;16.994;2023-04-24T03:54:17;98882.66;;;12.87;64.90
75629;BME280;64213;46.452;16.994;2023-04-24T03:57:19;98883.19;;;12.90;64.89
75629;BME280;64213;46.452;16.994;2023-04-24T04:00:21;98875.53;;;12.87;64.89
75629;BME280;64213;46.452;16.994;2023-04-24T04:03:24;98886.97;;;12.88;64.90
75629;BME280;64213;46.452;16.994;2023-04-24T04:06:27;98889.50;;;12.89;65.39
75629;BME280;64213;46.452;16.994;2023-04-24T04:09:30;98884.88;;;12.91;65.16
75629;BME280;64213;46.452;16.994;2023-04-24T04:12:32;98885.69;;;12.92;65.02
75629;BME280;64213;46.452;16.994;2023-04-24T04:15:34;98895.34;;;12.93;65.02
75629;BME280;64213;46.452;16.994;2023-04-24T04:18:36;98893.38;;;12.95;65.40
75629;BME280;64213;46.452;16.994;2023-04-24T04:21:39;98884.75;;;12.93;65.53
75629;BME280;64213;46.452;16.994;2023-04-24T04:24:41;98892.12;;;12.99;65.47
75629;BME280;64213;46.452;16.994;2023-04-24T04:27:43;98885.84;;;13.00;65.38
75629;BME280;64213;46.452;16.994;2023-04-24T04:30:45;98891.16;;;13.00;65.78
75629;BME280;64213;46.452;16.994;2023-04-24T04:33:47;98891.84;;;13.02;66.00
75629;BME280;64213;46.452;16.994;2023-04-24T04:36:49;98892.69;;;13.02;65.93
75629;BME280;64213;46.452;16.994;2023-04-24T04:39:52;98886.09;;;13.07;65.89
75629;BME280;64213;46.452;16.994;2023-04-24T04:42:55;98893.78;;;13.10;65.87
75629;BME280;64213;46.452;16.994;2023-04-24T04:45:57;98897.00;;;13.13;65.62
75629;BME280;64213;46.452;16.994;2023-04-24T04:49:01;98895.31;;;13.12;65.74
75629;BME280;64213;46.452;16.994;2023-04-24T04:52:03;98901.31;;;13.14;65.56
75629;BME280;64213;46.452;16.994;2023-04-24T04:55:05;98900.34;;;13.15;65.62
75629;BME280;64213;46.452;16.994;2023-04-24T04:58:08;98894.75;;;13.18;65.77
75629;BME280;64213;46.452;16.994;2023-04-24T05:01:10;98898.63;;;13.24;65.51
75629;BME280;64213;46.452;16.994;2023-04-24T05:04:12;98899.53;;;13.24;65.69
75629;BME280;64213;46.452;16.994;2023-04-24T05:07:14;98893.06;;;13.27;65.59
75629;BME280;64213;46.452;16.994;2023-04-24T05:10:16;98901.75;;;13.29;65.53
75629;BME280;64213;46.452;16.994;2023-04-24T05:13:18;98896.31;;;13.31;65.45
75629;BME280;64213;46.452;16.994;2023-04-24T05:16:32;98904.41;;;13.29;65.48
75629;BME280;64213;46.452;16.994;2023-04-24T05:19:34;98900.19;;;13.36;65.58
75629;BME280;64213;46.452;16.994;2023-04-24T05:22:39;98908.97;;;13.37;65.34
75629;BME280;64213;46.452;16.994;2023-04-24T05:25:41;98905.75;;;13.43;65.30
75629;BME280;64213;46.452;16.994;2023-04-24T05:28:44;98909.81;;;13.47;65.02
75629;BME280;64213;46.452;16.994;2023-04-24T05:31:46;98903.50;;;13.48;65.01
75629;BME280;64213;46.452;16.994;2023-04-24T05:34:49;98910.06;;;13.54;65.01
75629;BME280;64213;46.452;16.994;2023-04-24T05:37:51;98911.19;;;13.51;65.12
75629;BME280;64213;46.452;16.994;2023-04-24T05:40:53;98909.50;;;13.60;64.82
75629;BME280;64213;46.452;16.994;2023-04-24T05:43:55;98915.47;;;13.62;64.68
75629;BME280;64213;46.452;16.994;2023-04-24T05:46:57;98919.28;;;13.59;64.70
75629;BME280;64213;46.452;16.994;2023-04-24T05:49:59;98913.53;;;13.64;64.53
75629;BME280;64213;46.452;16.994;2023-04-24T05:53:01;98915.88;;;13.67;64.53
75629;BME280;64213;46.452;16.994;2023-04-24T05:56:04;98918.37;;;13.68;64.36
75629;BME280;64213;46.452;16.994;2023-04-24T05:59:07;98907.19;;;13.75;64.18
75629;BME280;64213;46.452;16.994;2023-04-24T06:02:10;98916.41;;;13.80;63.83
75629;BME280;64213;46.452;16.994;2023-04-24T06:05:12;98913.59;;;13.82;63.65
75629;BME280;64213;46.452;16.994;2023-04-24T06:08:14;98916.63;;;13.87;63.62
75629;BME280;64213;46.452;16.994;2023-04-24T06:11:16;98923.63;;;13.88;63.79
75629;BME280;64213;46.452;16.994;2023-04-24T06:14:19;98917.72;;;13.94;63.86
75629;BME280;64213;46.452;16.994;2023-04-24T06:17:21;98921.25;;;13.94;64.08
75629;BME280;64213;46.452;16.994;2023-04-24T06:20:23;98928.34;;;13.94;64.02
75629;BME280;64213;46.452;16.994;2023-04-24T06:23:25;98924.28;;;14.00;64.03
75629;BME280;64213;46.452;16.994;2023-04-24T06:26:27;98927.53;;;14.21;63.44
75629;BME280;64213;46.452;16.994;2023-04-24T06:29:29;98919.66;;;14.47;62.85
75629;BME280;64213;46.452;16.994;2023-04-24T06:32:31;98922.59;;;14.72;62.36
75629;BME280;64213;46.452;16.994;2023-04-24T06:35:33;98921.53;;;15.00;61.37
75629;BME280;64213;46.452;16.994;2023-04-24T06:38:35;98908.72;;;15.56;59.98
75629;BME280;64213;46.452;16.994;2023-04-24T06:41:37;98910.94;;;15.61;59.85
75629;BME280;64213;46.452;16.994;2023-04-24T06:44:41;98911.09;;;16.27;58.14
75629;BME280;64213;46.452;16.994;2023-04-24T06:47:43;98917.22;;;16.95;56.10
75629;BME280;64213;46.452;16.994;2023-04-24T06:50:45;98923.00;;;16.58;56.64
75629;BME280;64213;46.452;16.994;2023-04-24T06:53:48;98924.94;;;16.39;56.86
75629;BME280;64213;46.452;16.994;2023-04-24T06:56:51;98924.22;;;16.13;57.28
75629;BME280;64213;46.452;16.994;2023-04-24T06:59:54;98924.22;;;16.13;56.97
75629;BME280;64213;46.452;16.994;2023-04-24T07:02:56;98924.25;;;16.29;56.69
75629;BME280;64213;46.452;16.994;2023-04-24T07:05:59;98924.25;;;16.21;56.56
75629;BME280;64213;46.452;16.994;2023-04-24T07:09:02;98931.69;;;16.09;57.09
75629;BME280;64213;46.452;16.994;2023-04-24T07:12:05;98927.25;;;16.26;56.85
75629;BME280;64213;46.452;16.994;2023-04-24T07:15:08;98920.28;;;16.49;56.06
75629;BME280;64213;46.452;16.994;2023-04-24T07:18:10;98927.53;;;16.73;55.52
75629;BME280;64213;46.452;16.994;2023-04-24T07:21:12;98925.38;;;16.93;55.52
75629;BME280;64213;46.452;16.994;2023-04-24T07:24:14;98920.91;;;17.02;55.27
75629;BME280;64213;46.452;16.994;2023-04-24T07:27:16;98925.72;;;17.15;55.03
75629;BME280;64213;46.452;16.994;2023-04-24T07:30:19;98928.75;;;17.12;54.40
75629;BME280;64213;46.452;16.994;2023-04-24T07:33:21;98927.56;;;17.23;54.24
75629;BME280;64213;46.452;16.994;2023-04-24T07:36:23;98933.06;;;17.29;54.16
75629;BME280;64213;46.452;16.994;2023-04-24T07:39:26;98944.28;;;17.25;54.06
75629;BME280;64213;46.452;16.994;2023-04-24T07:42:28;98939.44;;;17.20;53.39
75629;BME280;64213;46.452;16.994;2023-04-24T07:45:32;98942.28;;;17.27;52.85
75629;BME280;64213;46.452;16.994;2023-04-24T07:48:37;98940.72;;;17.57;51.85
75629;BME280;64213;46.452;16.994;2023-04-24T07:51:40;98935.50;;;17.88;51.22
75629;BME280;64213;46.452;16.994;2023-04-24T07:54:43;98934.41;;;18.45;49.92
75629;BME280;64213;46.452;16.994;2023-04-24T07:57:46;98940.78;;;18.98;48.60
75629;BME280;64213;46.452;16.994;2023-04-24T08:00:48;98938.47;;;19.70;47.27
75629;BME280;64213;46.452;16.994;2023-04-24T08:03:50;98939.66;;;19.15;47.16
75629;BME280;64213;46.452;16.994;2023-04-24T08:06:53;98952.09;;;18.85;48.68
75629;BME280;64213;46.452;16.994;2023-04-24T08:09:55;98933.69;;;18.82;48.51
75629;BME280;64213;46.452;16.994;2023-04-24T08:12:57;98933.41;;;19.00;48.32
75629;BME280;64213;46.452;16.994;2023-04-24T08:15:59;98947.22;;;19.12;48.29
75629;BME280;64213;46.452;16.994;2023-04-24T08:19:02;98935.97;;;18.62;47.63
75629;BME280;64213;46.452;16.994;2023-04-24T08:22:04;98928.06;;;18.37;48.67
75629;BME280;64213;46.452;16.994;2023-04-24T08:25:06;98928.84;;;18.15;49.66
75629;BME280;64213;46.452;16.994;2023-04-24T08:28:09;98933.69;;;17.64;50.33
75629;BME280;64213;46.452;16.994;2023-04-24T08:31:12;98924.38;;;17.52;51.40
75629;BME280;64213;46.452;16.994;2023-04-24T08:34:14;98938.25;;;17.39;51.55
75629;BME280;64213;46.452;16.994;2023-04-24T08:37:16;98933.75;;;17.23;52.33
75629;BME280;64213;46.452;16.994;2023-04-24T08:40:22;98953.81;;;17.11;53.66
75629;BME280;64213;46.452;16.994;2023-04-24T08:43:27;98932.25;;;17.12;54.25
75629;BME280;64213;46.452;16.994;2023-04-24T08:46:30;98938.41;;;16.96;54.53
75629;BME280;64213;46.452;16.994;2023-04-24T08:49:33;98943.28;;;17.01;54.94
75629;BME280;64213;46.452;16.994;2023-04-24T08:52:35;98946.28;;;16.98;54.83
75629;BME280;64213;46.452;16.994;2023-04-24T08:55:37;98945.78;;;16.94;55.16
75629;BME280;64213;46.452;16.994;2023-04-24T08:58:40;98940.59;;;16.85;55.50
75629;BME280;64213;46.452;16.994;2023-04-24T09:01:45;98945.78;;;17.11;55.05
75629;BME280;64213;46.452;16.994;2023-04-24T09:04:49;98952.28;;;17.08;55.50
75629;BME280;64213;46.452;16.994;2023-04-24T09:07:54;98938.94;;;17.33;54.98
75629;BME280;64213;46.452;16.994;2023-04-24T09:10:58;98946.22;;;17.63;54.14
75629;BME280;64213;46.452;16.994;2023-04-24T09:14:01;98939.34;;;17.69;53.98
75629;BME280;64213;46.452;16.994;2023-04-24T09:17:03;98941.87;;;17.87;53.97
75629;BME280;64213;46.452;16.994;2023-04-24T09:20:06;98938.38;;;17.54;54.69
75629;BME280;64213;46.452;16.994;2023-04-24T09:23:08;98942.56;;;17.48;54.86
75629;BME280;64213;46.452;16.994;2023-04-24T09:26:15;98951.78;;;17.37;55.47
75629;BME280;64213;46.452;16.994;2023-04-24T09:29:18;98943.75;;;17.29;55.58
75629;BME280;64213;46.452;16.994;2023-04-24T09:32:21;98951.63;;;17.14;56.28
75629;BME280;64213;46.452;16.994;2023-04-24T09:35:24;98941.44;;;17.18;56.37
75629;BME280;64213;46.452;16.994;2023-04-24T09:38:33;98942.75;;;17.22;56.77
75629;BME280;64213;46.452;16.994;2023-04-24T09:41:35;98941.78;;;17.15;57.30
75629;BME280;64213;46.452;16.994;2023-04-24T09:44:49;98948.47;;;17.11;57.67
75629;BME280;64213;46.452;16.994;2023-04-24T09:48:05;98945.94;;;17.09;57.78
75629;BME280;64213;46.452;16.994;2023-04-24T09:51:08;98954.28;;;16.90;58.86
75629;BME280;64213;46.452;16.994;2023-04-24T09:54:15;98947.44;;;16.87;59.32
75629;BME280;64213;46.452;16.994;2023-04-24T09:57:21;98955.06;;;16.74;60.84
75629;BME280;64213;46.452;16.994;2023-04-24T10:00:31;98946.00;;;16.59;61.39
75629;BME280;64213;46.452;16.994;2023-04-24T10:03:34;98959.03;;;16.54;61.74
75629;BME280;64213;46.452;16.994;2023-04-24T10:06:37;98949.69;;;16.58;62.20
75629;BME280;64213;46.452;16.994;2023-04-24T10:09:39;98955.63;;;16.35;63.00
75629;BME280;64213;46.452;16.994;2023-04-24T10:12:42;98957.75;;;16.23;64.02
75629;BME280;64213;46.452;16.994;2023-04-24T10:15:46;98951.69;;;16.05;65.48
75629;BME280;64213;46.452;16.994;2023-04-24T10:18:49;98957.53;;;16.09;64.97
75629;BME280;64213;46.452;16.994;2023-04-24T10:21:52;98960.84;;;16.02;65.03
75629;BME280;64213;46.452;16.994;2023-04-24T10:24:54;98955.66;;;16.01;65.03
75629;BME280;64213;46.452;16.994;2023-04-24T10:27:58;98963.84;;;15.99;65.95
75629;BME280;64213;46.452;16.994;2023-04-24T10:31:01;98969.44;;;15.88;65.37
75629;BME280;64213;46.452;16.994;2023-04-24T10:34:08;98961.72;;;15.77;65.66
75629;BME280;64213;46.452;16.994;2023-04-24T10:37:11;98963.91;;;15.81;65.81
75629;BME280;64213;46.452;16.994;2023-04-24T10:40:19;98958.16;;;15.68;67.02
75629;BME280;64213;46.452;16.994;2023-04-24T10:43:27;98964.69;;;15.74;66.44
75629;BME280;64213;46.452;16.994;2023-04-24T10:46:29;98958.03;;;15.70;67.27
75629;BME280;64213;46.452;16.994;2023-04-24T10:49:32;98958.25;;;15.58;68.69
75629;BME280;64213;46.452;16.994;2023-04-24T10:52:49;98964.19;;;15.26;70.13
75629;BME280;64213;46.452;16.994;2023-04-24T10:56:03;98964.56;;;15.14;71.05
75629;BME280;64213;46.452;16.994;2023-04-24T10:59:07;98964.03;;;15.10;72.30
75629;BME280;64213;46.452;16.994;2023-04-24T11:02:14;98963.66;;;15.23;71.78
75629;BME280;64213;46.452;16.994;2023-04-24T11:05:18;98961.91;;;15.14;72.10
75629;BME280;64213;46.452;16.994;2023-04-24T11:08:27;98968.06;;;15.14;73.37
75629;BME280;64213;46.452;16.994;2023-04-24T11:11:30;98954.38;;;14.91;73.75
75629;BME280;64213;46.452;16.994;2023-04-24T11:17:57;98954.25;;;14.75;75.08
75629;BME280;64213;46.452;16.994;2023-04-24T11:21:10;98957.25;;;14.80;74.13
75629;BME280;64213;46.452;16.994;2023-04-24T11:27:32;98962.00;;;14.86;74.41
75629;BME280;64213;46.452;16.994;2023-04-24T11:30:45;98953.88;;;14.87;74.76
75629;BME280;64213;46.452;16.994;2023-04-24T11:33:47;98959.03;;;14.89;74.43
75629;BME280;64213;46.452;16.994;2023-04-24T11:36:49;98958.09;;;14.98;75.25
75629;BME280;64213;46.452;16.994;2023-04-24T11:39:57;98962.13;;;15.02;74.32
75629;BME280;64213;46.452;16.994;2023-04-24T11:43:00;98961.28;;;15.02;75.31
75629;BME280;64213;46.452;16.994;2023-04-24T11:46:02;98963.03;;;14.93;74.82
75629;BME280;64213;46.452;16.994;2023-04-24T11:49:07;98958.19;;;14.88;75.16
75629;BME280;64213;46.452;16.994;2023-04-24T11:52:09;98960.31;;;14.85;75.05
75629;BME280;64213;46.452;16.994;2023-04-24T11:58:20;98963.50;;;14.88;75.72
75629;BME280;64213;46.452;16.994;2023-04-24T12:01:23;98967.19;;;14.87;77.27
75629;BME280;64213;46.452;16.994;2023-04-24T12:04:26;98964.13;;;14.82;78.22
75629;BME280;64213;46.452;16.994;2023-04-24T12:07:28;98965.72;;;14.75;77.41
75629;BME280;64213;46.452;16.994;2023-04-24T12:10:32;98963.19;;;14.74;77.58
75629;BME280;64213;46.452;16.994;2023-04-24T12:13:35;98960.75;;;14.80;78.10
75629;BME280;64213;46.452;16.994;2023-04-24T12:16:37;98957.06;;;14.91;76.90
75629;BME280;64213;46.452;16.994;2023-04-24T12:19:45;98956.22;;;14.91;77.02
75629;BME280;64213;46.452;16.994;2023-04-24T12:22:56;98954.69;;;14.88;77.12
75629;BME280;64213;46.452;16.994;2023-04-24T12:26:00;98953.03;;;14.87;76.79
75629;BME280;64213;46.452;16.994;2023-04-24T12:29:03;98949.97;;;14.82;76.29
75629;BME280;64213;46.452;16.994;2023-04-24T12:32:15;98946.91;;;14.77;76.04
75629;BME280;64213;46.452;16.994;2023-04-24T12:35:22;98946.63;;;14.80;75.62
75629;BME280;64213;46.452;16.994;2023-04-24T12:38:27;98949.44;;;14.78;75.39
75629;BME280;64213;46.452;16.994;2023-04-24T12:41:30;98939.09;;;14.75;75.72
75629;BME280;64213;46.452;16.994;2023-04-24T12:44:33;98941.44;;;14.60;76.77
75629;BME280;64213;46.452;16.994;2023-04-24T12:47:36;98939.81;;;14.50;76.99
75629;BME280;64213;46.452;16.994;2023-04-24T12:50:39;98938.97;;;14.49;78.69
75629;BME280;64213;46.452;16.994;2023-04-24T12:53:41;98940.41;;;14.43;78.07
75629;BME280;64213;46.452;16.994;2023-04-24T12:56:43;98933.78;;;14.48;78.09
75629;BME280;64213;46.452;16.994;2023-04-24T12:59:46;98925.81;;;14.48;79.11
75629;BME280;64213;46.452;16.994;2023-04-24T13:02:48;98929.72;;;14.53;79.82
75629;BME280;64213;46.452;16.994;2023-04-24T13:05:50;98916.97;;;14.57;79.01
75629;BME280;64213;46.452;16.994;2023-04-24T13:08:52;98926.00;;;14.64;79.34
75629;BME280;64213;46.452;16.994;2023-04-24T13:11:54;98920.44;;;14.57;79.37
75629;BME280;64213;46.452;16.994;2023-04-24T13:14:58;98914.47;;;14.55;80.13
75629;BME280;64213;46.452;16.994;2023-04-24T13:18:00;98912.63;;;14.56;79.88
75629;BME280;64213;46.452;16.994;2023-04-24T13:21:02;98916.69;;;14.50;80.95
75629;BME280;64213;46.452;16.994;2023-04-24T13:24:05;98912.66;;;14.46;82.69
75629;BME280;64213;46.452;16.994;2023-04-24T13:27:09;98906.44;;;14.37;82.06
75629;BME280;64213;46.452;16.994;2023-04-24T13:30:11;98902.69;;;14.30;83.39
75629;BME280;64213;46.452;16.994;2023-04-24T13:33:14;98896.22;;;14.15;82.97
75629;BME280;64213;46.452;16.994;2023-04-24T13:36:16;98904.28;;;14.23;84.84
75629;BME280;64213;46.452;16.994;2023-04-24T13:39:19;98902.34;;;14.15;84.72
75629;BME280;64213;46.452;16.994;2023-04-24T13:42:22;98898.94;;;14.05;85.67
75629;BME280;64213;46.452;16.994;2023-04-24T13:45:24;98898.38;;;14.02;85.29
75629;BME280;64213;46.452;16.994;2023-04-24T13:48:26;98893.59;;;14.05;85.09
75629;BME280;64213;46.452;16.994;2023-04-24T13:51:28;98893.44;;;14.07;85.05
75629;BME280;64213;46.452;16.994;2023-04-24T13:54:30;98898.03;;;14.14;84.92
75629;BME280;64213;46.452;16.994;2023-04-24T13:57:33;98893.00;;;14.11;85.07
75629;BME280;64213;46.452;16.994;2023-04-24T14:00:35;98891.03;;;14.13;85.19
75629;BME280;64213;46.452;16.994;2023-04-24T14:03:37;98896.97;;;14.25;85.69
75629;BME280;64213;46.452;16.994;2023-04-24T14:06:40;98889.81;;;14.26;84.74
75629;BME280;64213;46.452;16.994;2023-04-24T14:09:42;98893.19;;;14.28;85.22
75629;BME280;64213;46.452;16.994;2023-04-24T14:12:44;98886.22;;;14.27;84.69
75629;BME280;64213;46.452;16.994;2023-04-24T14:15:46;98883.78;;;14.33;84.92
75629;BME280;64213;46.452;16.994;2023-04-24T14:18:48;98890.31;;;14.39;84.73
75629;BME280;64213;46.452;16.994;2023-04-24T14:21:50;98887.19;;;14.43;84.22
75629;BME280;64213;46.452;16.994;2023-04-24T14:24:52;98889.03;;;14.43;84.75
75629;BME280;64213;46.452;16.994;2023-04-24T14:27:54;98893.63;;;14.51;84.73
75629;BME280;64213;46.452;16.994;2023-04-24T14:30:59;98887.19;;;14.43;84.57
75629;BME280;64213;46.452;16.994;2023-04-24T14:34:02;98887.72;;;14.47;83.68
75629;BME280;64213;46.452;16.994;2023-04-24T14:37:04;98890.66;;;14.54;82.85
75629;BME280;64213;46.452;16.994;2023-04-24T14:40:07;98888.75;;;14.64;82.86
75629;BME280;64213;46.452;16.994;2023-04-24T14:43:29;98880.69;;;14.56;82.94
75629;BME280;64213;46.452;16.994;2023-04-24T14:46:32;98882.09;;;14.50;83.21
75629;BME280;64213;46.452;16.994;2023-04-24T14:49:34;98886.69;;;14.58;83.29
75629;BME280;64213;46.452;16.994;2023-04-24T14:52:36;98886.59;;;14.68;84.02
75629;BME280;64213;46.452;16.994;2023-04-24T14:55:39;98885.09;;;14.83;83.49
75629;BME280;64213;46.452;16.994;2023-04-24T14:58:41;98890.69;;;14.98;83.76
75629;BME280;64213;46.452;16.994;2023-04-24T15:01:43;98888.44;;;14.85;83.07
75629;BME280;64213;46.452;16.994;2023-04-24T15:04:45;98884.03;;;14.76;83.22
75629;BME280;64213;46.452;16.994;2023-04-24T15:07:48;98894.75;;;14.84;83.66
75629;BME280;64213;46.452;16.994;2023-04-24T15:10:49;98892.41;;;14.81;83.82
75629;BME280;64213;46.452;16.994;2023-04-24T15:13:52;98898.03;;;14.78;84.55
75629;BME280;64213;46.452;16.994;2023-04-24T15:16:54;98891.09;;;14.67;85.17
75629;BME280;64213;46.452;16.994;2023-04-24T15:19:56;98894.00;;;14.56;85.63
75629;BME280;64213;46.452;16.994;2023-04-24T15:22:58;98893.63;;;14.51;87.56
75629;BME280;64213;46.452;16.994;2023-04-24T15:26:02;98899.28;;;14.38;88.21
75629;BME280;64213;46.452;16.994;2023-04-24T15:29:04;98898.81;;;14.25;88.45
75629;BME280;64213;46.452;16.994;2023-04-24T15:32:06;98900.09;;;14.21;89.32
75629;BME280;64213;46.452;16.994;2023-04-24T15:35:10;98902.00;;;14.01;89.54
75629;BME280;64213;46.452;16.994;2023-04-24T15:38:13;98913.09;;;13.96;89.39
75629;BME280;64213;46.452;16.994;2023-04-24T15:41:15;98917.56;;;13.68;90.00
75629;BME280;64213;46.452;16.994;2023-04-24T15:44:17;98936.69;;;12.86;89.07
75629;BME280;64213;46.452;16.994;2023-04-24T15:47:19;98936.38;;;12.50;88.35
75629;BME280;64213;46.452;16.994;2023-04-24T15:50:21;98929.62;;;12.07;88.57
75629;BME280;64213;46.452;16.994;2023-04-24T15:53:25;98937.16;;;11.81;89.40
75629;BME280;64213;46.452;16.994;2023-04-24T15:56:27;98944.69;;;11.55;90.67
75629;BME280;64213;46.452;16.994;2023-04-24T15:59:32;98940.22;;;11.46;91.67
75629;BME280;64213;46.452;16.994;2023-04-24T16:02:34;98943.84;;;11.54;91.85
75629;BME280;64213;46.452;16.994;2023-04-24T16:05:38;98941.94;;;11.56;91.44